createdAt,value
2023-05-14T00:00:02.353Z,12.4
2023-05-14T00:20:02.732Z,12.3
2023-05-14T00:40:02.318Z,12.2
2023-05-14T01:00:02.834Z,12.1
2023-05-14T01:20:02.382Z,11.8
2023-05-14T01:40:02.936Z,11.6
2023-05-14T02:00:02.450Z,11.4
2023-05-14T02:20:03.033Z,11.4
2023-05-14T02:40:02.279Z,11.5
2023-05-14T03:00:02.642Z,11.6
2023-05-14T03:20:03.007Z,11.7
2023-05-14T03:40:03.291Z,11.6
2023-05-14T04:00:02.703Z,11.6
2023-05-14T04:20:02.250Z,11.7
2023-05-14T04:40:02.797Z,12.4
2023-05-14T05:00:02.178Z,12.8
2023-05-14T05:20:02.872Z,13.1
2023-05-14T05:40:02.313Z,13.4
2023-05-14T06:00:02.619Z,13.9
2023-05-14T06:20:02.427Z,14.4
2023-05-14T06:40:03.063Z,14.9
2023-05-14T07:00:03.621Z,15.5
2023-05-14T07:20:02.506Z,16.4
2023-05-14T07:40:02.882Z,17.2
2023-05-14T08:00:02.404Z,18
2023-05-14T08:20:02.089Z,18.7
2023-05-14T08:40:02.650Z,20.8
2023-05-14T09:00:03.094Z,22.5
2023-05-14T09:20:02.772Z,23.9
2023-05-14T09:40:02.286Z,25.2
2023-05-14T10:00:02.803Z,25.9
2023-05-14T10:20:02.252Z,25
2023-05-14T10:40:02.856Z,23.4
2023-05-14T11:00:02.360Z,22.7
2023-05-14T11:20:02.728Z,22.2
2023-05-14T11:40:02.311Z,21.5
2023-05-14T12:00:02.771Z,21.5
2023-05-14T12:20:02.226Z,22.3
2023-05-14T12:40:02.644Z,22.9
2023-05-14T13:00:02.948Z,21.7
2023-05-14T13:20:02.337Z,22.1
2023-05-14T13:40:02.885Z,22.2
2023-05-14T14:00:02.566Z,21.9
2023-05-14T14:20:03.227Z,21.8
2023-05-14T14:40:02.634Z,21.3
2023-05-14T15:00:03.006Z,21
2023-05-14T15:20:02.333Z,21.1
2023-05-14T15:40:02.686Z,21
2023-05-14T16:00:03.124Z,20.7
2023-05-14T16:20:02.322Z,20.4
2023-05-14T16:40:02.614Z,19.9
2023-05-14T17:00:02.944Z,19.7
2023-05-14T17:20:02.565Z,19.3
2023-05-14T17:40:03.326Z,19
2023-05-14T18:00:03.009Z,18.7
2023-05-14T18:20:02.641Z,18.2
2023-05-14T18:40:03.070Z,17.6
2023-05-14T19:00:02.781Z,17
2023-05-14T19:20:02.489Z,16.3
2023-05-14T19:40:03.194Z,15.8
2023-05-14T20:00:02.606Z,15.2
2023-05-14T20:20:03.251Z,14.6
2023-05-14T20:40:02.643Z,14.3
2023-05-14T21:00:03.271Z,13.9
2023-05-14T21:20:03.226Z,13.4
2023-05-14T21:40:02.500Z,13.2
2023-05-14T22:00:03.070Z,12.8
2023-05-14T22:20:02.593Z,12.5
2023-05-14T22:40:02.800Z,12.2
2023-05-14T23:00:02.242Z,12
2023-05-14T23:20:02.773Z,11.7
2023-05-14T23:40:02.833Z,11.5
